Flight Track Log - Related Links

Times and Time Zones

All times are in EDT time to prevent confusion due to time zone crossing. See the ASQ4209 flight status page for this flight to view local times or setup timezone preferences in your user account.

Time Position Orientation Groundspeed Altitude Reporting Facility
EDT Latitude Longitude Course Direction KTS MPH feet Rate Location/Type
Fri 01:52:22 PM 38.7167 -90.3000 84° East 177 204 2,700  Level Gateway (St. Louis) TRACON
Fri 01:53:08 PM 38.7069 -90.2447 103° East 193 222 3,900 1,556 Climbing Kansas City Center
Fri 01:54:10 PM 38.6878 -90.1600 106° East 232 267 5,500 1,548 Climbing Kansas City Center
Fri 01:55:00 PM 38.7607 -89.8269 87° East  Level FlightAware Approximate
Fri 01:55:12 PM 38.6947 -90.0561 85° East 276 318 7,100  Level Kansas City Center
Fri 01:56:00 PM 38.7658 -89.6917 87° East  Level FlightAware Approximate
Fri 01:56:13 PM 38.7036 -89.9497 84° East 298 343 9,000  Level Kansas City Center
Fri 01:57:00 PM 38.7835 -89.5485 84° East  Level FlightAware Approximate
Fri 01:57:15 PM 38.7114 -89.8414 85° East 304 350 10,000  Level Kansas City Center
Fri 01:58:17 PM 38.7181 -89.7303 86° East 311 358 11,000 1,220 Climbing Kansas City Center
Fri 01:59:18 PM 38.7072 -89.5950 96° East 334 384 12,500 1,268 Climbing Kansas City Center
Fri 02:00:20 PM 38.7156 -89.4578 86° East 362 417 13,600 1,016 Climbing Kansas City Center
Fri 02:01:22 PM 38.7319 -89.3225 81° East 387 445 14,600 1,415 Climbing Kansas City Center
Fri 02:02:23 PM 38.7625 -89.1883 74° East 392 451 16,500 1,951 Climbing Kansas City Center
Fri 02:03:25 PM 38.7931 -89.0514 74° East 375 432 18,600 1,839 Climbing Kansas City Center
Fri 02:04:27 PM 38.8183 -88.9464 73° East 364 419 20,300 1,561 Climbing Kansas City Center
Fri 02:05:28 PM 38.8481 -88.8275 72° East 355 409 21,800 1,220 Climbing Kansas City Center
Fri 02:06:30 PM 38.8786 -88.6800 75° East 357 411 22,800 726 Climbing Kansas City Center
Fri 02:07:32 PM 38.9033 -88.5581 75° East 378 435 23,300 683 Climbing Kansas City Center
Fri 02:08:33 PM 38.9394 -88.4181 72° East 401 461 24,200 927 Climbing Kansas City Center
Fri 02:09:35 PM 38.9783 -88.2806 70° East 407 468 25,200 1,065 Climbing Kansas City Center
Fri 02:10:37 PM 39.0250 -88.1133 70° East 410 472 26,400 1,062 Climbing Kansas City Center
Fri 02:11:28 PM 39.0531 -88.0044 72° East 410 472 27,200 956 Climbing Indianapolis Center
Fri 02:12:30 PM 39.0914 -87.8672 70° East 407 468 28,200 976 Climbing Indianapolis Center
Fri 02:13:31 PM 39.1303 -87.7267 70° East 410 472 29,200 976 Climbing Indianapolis Center
Fri 02:14:33 PM 39.1678 -87.5900 70° East 405 466 30,200 968 Climbing Indianapolis Center
Fri 02:15:35 PM 39.2050 -87.4506 71° East 408 470 31,200 976 Climbing Indianapolis Center
Fri 02:16:36 PM 39.2428 -87.3119 71° East 408 470 32,200 1,122 Climbing Indianapolis Center
Fri 02:17:38 PM 39.2792 -87.1744 71° East 404 465 33,500 1,171 Climbing Indianapolis Center
Fri 02:18:39 PM 39.3156 -87.0417 70° East 393 452 34,600 732 Climbing Indianapolis Center
Fri 02:19:41 PM 39.3508 -86.9086 71° East 389 448 35,000 195 Climbing Indianapolis Center
Fri 02:20:42 PM 39.3956 -86.7397 71° East 412 474 35,000  Level Indianapolis Center
Fri 02:21:44 PM 39.4350 -86.5878 71° East 438 504 35,000  Level Indianapolis Center
Fri 02:22:45 PM 39.4764 -86.4325 71° East 451 519 35,000  Level Indianapolis Center
Fri 02:23:47 PM 39.5194 -86.2697 71° East 471 542 35,000  Level Indianapolis Center
Fri 02:24:48 PM 39.5611 -86.1019 72° East 484 557 35,000  Level Indianapolis Center
Fri 02:25:50 PM 39.6036 -85.9328 72° East 490 564 35,000  Level Indianapolis Center
Fri 02:26:52 PM 39.6519 -85.7681 69° East 488 562 35,000  Level Indianapolis Center
Fri 02:27:53 PM 39.7133 -85.6078 63° Northeast 479 551 35,000 488 Level Indianapolis Center
Fri 02:28:55 PM 39.7728 -85.4547 63° Northeast 470 541 36,000 927 Climbing Indianapolis Center
Fri 02:29:56 PM 39.8286 -85.3047 64° Northeast 458 527 36,900 488 Climbing Indianapolis Center
Fri 02:30:58 PM 39.8833 -85.1544 65° Northeast 456 525 37,000 49 Climbing Indianapolis Center
Fri 02:31:59 PM 39.9378 -84.9972 66° East 469 540 37,000  Level Indianapolis Center
Fri 02:33:01 PM 39.9997 -84.8081 67° East 480 552 37,000  Level Indianapolis Center
Fri 02:34:03 PM 40.0533 -84.6422 67° East 491 565 37,000  Level Indianapolis Center
Fri 02:35:04 PM 40.1072 -84.4786 67° East 486 559 37,000  Level Indianapolis Center
Fri 02:36:06 PM 40.1597 -84.3172 67° East 479 551 37,000 -49 Level Indianapolis Center
Fri 02:37:07 PM 40.2117 -84.1564 67° East 475 547 36,900 -49 Descending Indianapolis Center
Fri 02:38:09 PM 40.2572 -84.0106 68° East 431 496 36,900 48 Level Indianapolis Center
Fri 02:39:11 PM 40.3011 -83.8706 68° East 411 473 37,000 49 Climbing Indianapolis Center
Fri 02:40:12 PM 40.3481 -83.7275 67° East 420 483 37,000  Level Indianapolis Center
Fri 02:41:14 PM 40.3944 -83.5764 68° East 436 502 37,000  Level Indianapolis Center
Fri 02:42:16 PM 40.4436 -83.4206 67° East 452 520 37,000  Level Indianapolis Center
Fri 02:43:17 PM 40.4931 -83.2608 68° East 464 534 37,000  Level Indianapolis Center
Fri 02:44:19 PM 40.5436 -83.0967 68° East 469 540 37,000  Level Indianapolis Center
Fri 02:45:21 PM 40.5944 -82.9339 68° East 477 549 37,000  Level Indianapolis Center
Fri 02:46:22 PM 40.6436 -82.7692 68° East 481 554 37,000  Level Indianapolis Center
Fri 02:47:24 PM 40.7022 -82.5772 68° East 482 555 37,000 -48 Level Indianapolis Center
Fri 02:48:26 PM 40.7511 -82.4142 68° East 479 551 36,900  Descending Indianapolis Center
Fri 02:49:28 PM 40.7981 -82.2564 68° East 465 535 37,000 48 Climbing Indianapolis Center
Fri 02:50:30 PM 40.8433 -82.1064 68° East 446 513 37,000  Level Indianapolis Center
Fri 02:51:31 PM 40.8853 -81.9608 69° East 430 495 37,000  Level Indianapolis Center
Fri 02:52:33 PM 40.9264 -81.8189 69° East 416 479 37,000  Level Indianapolis Center
Fri 02:53:35 PM 40.9675 -81.6822 68° East 402 463 37,000  Level Indianapolis Center
Fri 02:54:28 PM 41.0075 -81.5433 69° East 398 458 37,000  Level Cleveland Center
Fri 02:55:28 PM 41.0503 -81.4008 68° East 404 465 37,000  Level Cleveland Center
Fri 02:56:28 PM 41.0908 -81.2525 70° East 411 473 37,000  Level Cleveland Center
Fri 02:57:28 PM 41.1333 -81.1042 69° East 422 486 37,000  Level Cleveland Center
Fri 02:58:28 PM 41.1778 -80.9528 69° East 432 497 37,000  Level Cleveland Center
Fri 02:59:28 PM 41.2219 -80.8011 69° East 432 497 37,000  Level Cleveland Center
Fri 03:00:28 PM 41.2636 -80.6494 70° East 438 504 37,000  Level Cleveland Center
Fri 03:01:28 PM 41.3075 -80.4947 69° East 438 504 37,000  Level Cleveland Center
Fri 03:02:28 PM 41.3511 -80.3397 69° East 443 510 37,000  Level Cleveland Center
Fri 03:03:28 PM 41.3944 -80.1844 70° East 443 510 37,000  Level Cleveland Center
Fri 03:04:28 PM 41.4375 -80.0292 70° East 443 510 37,000  Level Cleveland Center
Fri 03:05:29 PM 41.4742 -79.8931 70° East 443 510 37,000  Level Cleveland Center
Fri 03:06:29 PM 41.5169 -79.7372 70° East 443 510 37,000  Level Cleveland Center
Fri 03:07:28 PM 41.5594 -79.5842 70° East 443 510 37,000  Level Cleveland Center
Fri 03:08:28 PM 41.5997 -79.4281 71° East 443 510 37,000  Level Cleveland Center
Fri 03:09:28 PM 41.6419 -79.2744 70° East 443 510 37,000 -600 Level Cleveland Center
Fri 03:10:28 PM 41.6503 -79.1103 86° East 443 510 35,800 -1,650 Descending Cleveland Center
Fri 03:11:28 PM 41.6294 -78.9442 99° East 434 499 33,700 -2,050 Descending Cleveland Center
Fri 03:12:28 PM 41.6103 -78.7808 99° East 439 505 31,700 -1,350 Descending Cleveland Center
Fri 03:13:28 PM 41.5889 -78.6175 100° East 444 511 31,000 -350 Descending Cleveland Center
Fri 03:14:28 PM 41.5714 -78.4597 98° East 444 511 31,000  Level Cleveland Center
Fri 03:16:17 PM 41.5364 -78.1739 99° East 435 501 31,000  Level New York Center
Fri 03:17:18 PM 41.5178 -78.0025 98° East 447 514 31,000  Level New York Center
Fri 03:18:18 PM 41.4942 -77.8422 101° East 453 521 31,000  Level New York Center
Fri 03:19:16 PM 41.4728 -77.6764 100° East 453 521 31,000  Level New York Center
Fri 03:20:17 PM 41.4467 -77.5106 102° East 453 521 31,000 -700 Level New York Center
Fri 03:21:16 PM 41.4172 -77.3331 102° East 453 521 29,600 -1,450 Descending New York Center
Fri 03:22:17 PM 41.3844 -77.1694 105° East 453 521 28,100 -1,563 Descending New York Center
Fri 03:23:15 PM 41.3494 -77.0031 106° East 458 527 26,500 -1,059 Descending New York Center
Fri 03:24:16 PM 41.3122 -76.8394 107° East 464 534 26,000 -393 Descending New York Center
Fri 03:25:17 PM 41.2769 -76.6706 105° East 464 534 25,700 -492 Descending New York Center
Fri 03:26:18 PM 41.2392 -76.5044 107° East 464 534 25,000 -496 Descending New York Center
Fri 03:27:18 PM 41.2069 -76.3528 106° East 472 543 24,700 -661 Descending New York Center
Fri 03:28:16 PM 41.1686 -76.1869 107° East 472 543 23,700 -1,462 Descending New York Center
Fri 03:29:17 PM 41.1361 -76.0328 106° East 453 521 21,800 -2,754 Descending New York Center
Fri 03:30:18 PM 41.0931 -75.8753 110° East 420 483 18,100 -3,372 Descending New York Center
Fri 03:31:18 PM 41.0553 -75.7322 109° East 408 470 15,000 -2,615 Descending New York Center
Fri 03:32:15 PM 41.0189 -75.6031 110° East 408 470 13,000 -1,361 Descending New York Center
Fri 03:33:17 PM 40.9808 -75.4628 110° East 392 451 12,300 -1,082 Descending New York Center
Fri 03:34:17 PM 40.9481 -75.3481 111° Southeast 343 395 10,800 -1,438 Descending New York Center
Fri 03:35:18 PM 40.9186 -75.2417 110° East 315 362 9,400 -1,462 Descending New York Center
Fri 03:36:16 PM 40.8892 -75.1381 111° Southeast 302 348 7,900 -1,220 Descending New York Center
Fri 03:37:16 PM 40.8631 -75.0514 112° Southeast 295 339 7,000 -446 Descending New York Center
Fri 03:38:17 PM 40.8647 -74.9500 89° East 277 319 7,000 -344 Level New York Center
Fri 03:39:18 PM 40.8706 -74.8433 86° East 282 325 6,300 -508 Descending New York Center
Fri 03:40:15 PM 40.8806 -74.7342 83° East 287 330 6,000 -153 Descending New York Center
Fri 03:41:16 PM 40.9019 -74.6531 71° East 263 303 6,000  Level New York Center
Fri 03:42:17 PM 40.9322 -74.5586 67° East 256 295 6,000 -446 Level New York Center
Fri 03:43:17 PM 40.9597 -74.4806 65° Northeast 251 289 5,100 -496 Descending New York Center
Fri 03:44:18 PM 40.9750 -74.3878 78° East 245 282 5,000 -55 Descending New York Center
Fri 03:45:07 PM 40.9833 -74.3167 81° East 240 276 5,000 -470 Level New York TRACON
Fri 03:46:13 PM 40.9667 -74.2167 102° East 242 278 4,100 -476 Descending New York TRACON
Fri 03:47:13 PM 40.9500 -74.1500 108° East 211 243 4,000 -250 Descending New York TRACON
Fri 03:48:13 PM 40.9167 -74.1000 131° Southeast 190 219 3,600 -522 Descending New York TRACON
Fri 03:49:08 PM 40.8667 -74.0833 166° South 176 203 3,000 -500 Descending New York TRACON
Fri 03:50:13 PM 40.8167 -74.0833 180° South 170 196 2,600 -369 Descending New York TRACON

Login

Don't have an account? Register now (free) for customized features, flight alerts, and more!